Palouse, WA (99161)

3:11 PM PDT on August 30, 2014 (GMT -0700)
Palouse Cove | Change Station
CLOSE
Current Station
Personal Weather Station
Location: Palouse, WA
Elevation: 2462 ft
Nearby Weather Stations

Elev 2462 ft 46.91 °N, 117.08 °W | Updated 30 seconds ago

Mostly Cloudy
Mostly Cloudy
71.2 °F
Feels Like 77 °F
N
4.0
Wind Variable Wind from West
Gusts 4.0 mph

Today
High -- | Low -- °F
--% Chance of Precip.
Yesterday
High -- | Low -- °F
Precip. -- in
6:05 AM 7:31 PM
Waxing Crescent, 25% visible
Pressure 29.85 in
Visibility 10.0 miles
Clouds Few 5500 ft
Overcast 8000 ft
Heat Index 77 °F
Dew Point 48 °F
Humidity 44%
Rainfall 0.00 in
Snow Depth Not available.
UV 2 out of 12
Pollen 7.40 out of 12
Air Quality Not available.
Flu Activity Not available.
METAR KPUW 302153Z AUTO 27016G21KT 10SM FEW055 OVC080 23/07 A2988 RMK AO2 SLP107 T02280067

More Conditions Fewer Conditions

Pressure 29.85 in
Visibility 10.0 miles
Clouds Few 5500 ft
Overcast 8000 ft
Heat Index 77 °F
Dew Point 48 °F
Humidity 44%
Rainfall 0.00 in
Snow Depth Not available.
UV 2 out of 12
Pollen 7.40 out of 12
Air Quality Not available.
Flu Activity Not available.
METAR KPUW 302153Z AUTO 27016G21KT 10SM FEW055 OVC080 23/07 A2988 RMK AO2 SLP107 T02280067

More Conditions Fewer Conditions

10-Day Weather Forecast

Almanac

Astronomy

Aug. 30, 2014 Rise Set
Actual Time 6:05 AM PDT 7:31 PM PDT
Civil Twilight 5:33 AM PDT 8:03 PM PDT
Nautical Twilight 4:55 AM PDT 8:41 PM PDT
Astronomical Twilight 4:13 AM PDT 9:22 PM PDT
Moon 11:18 AM PDT 9:46 PM PDT
Length of Visible Light 14h 29m
Length of Day
13h 26m
Tomorrow will be 3m 13s shorter.
Waxing Crescent, 25% of the Moon is Illuminated
Today
Waxing Crescent
Sep 2
First Quarter
Sep 8
Full
Sep 15
Last Quarter
Sep 24
New

Today's Extremes

State Highs State Lows

Community

WunderPhotos

Upload Photos

1,748,657 photos uploaded!

WunderBlogs® & News

Nearby

Snow Depth

Station Depth Elevation
Sourdough Gulch 0 in 4000 ft
Spruce Springs 1 in 5700 ft
Quartz Peak 1 in 4700 ft
Moses Mountain 1 in 5300 ft
Sentinel Butte 0 in 4920 ft

Earthquake Activity

City Distance Mag. Time & Date
No recent earthquake activity has been reported nearby.
Minimum magnitude displayed is 2.5.

Coastal Water Temperatures

Place Temperature
No Stations Reporting

Nearby Weather Stations